の過去48時間の天気

Alert Airport

現在時刻: 9/17 07:19 EDT (9/17 11:19 UTC) 以下の時間は現地時間です。

過去48時間のMETAR気象情報
時間 風向 風速(m/s) 視程 気温(℃) 湿度(%) 気圧(hPa) 天気現象
16 16:00 静穏 0 10km以上 -8 86 1025.6 もや
16 15:00 静穏 0 6450m -7 86 1025.5 もや
16 14:00 南南西 1 10km以上 -6 79 1025.5
16 13:00 西北西 1 10km以上 -8 79 1025.3
16 12:00 北西 1 10km以上 -6 86 1025.2
16 11:00 静穏 0 10km以上 -7 86 1025
16 10:34 静穏 0 4850m -8 93 1025 もや
16 10:00 西北西 2 10km以上 -8 86 1024.8
16 09:00 静穏 0 10km以上 -7 93 1024.6
16 08:00 静穏 0 10km以上 -7 93 1024.4
CYLT 162000Z 00000KT 6SM BR FEW220 M08/M10 A3027 RMK CI2 LAST OBS/NEXT 171200 UTC SLP256
CYLT 161900Z 00000KT 4SM BR FEW220 M07/M09 A3027 RMK CI2 VIS N-SE 1 SLP255
CYLT 161800Z 21002KT 10SM FEW220 M06/M09 A3027 RMK CI2 VIS LWR N 1-2 BR SLP255
CYLT 161700Z 30002KT 10SM FEW220 M08/M11 A3027 RMK CI2 VIS LWR N 1-2 BR SLP253
CYLT 161600Z 32002KT 9SM FEW220 M06/M08 A3026 RMK CI2 VIS LWR N 3-5 SLP252
CYLT 161500Z 00000KT 9SM FEW220 M07/M09 A3026 RMK CI2 VIS LWR N 3-5 SLP250
CYLT 161434Z 00000KT 3SM BR FEW220 M08/M09 A3026 RMK CI2 SLP250
CYLT 161400Z 29003KT 15SM FEW220 M08/M10 A3025 RMK CI2 FG ALG CST SLP248
CYLT 161300Z 00000KT 15SM FEW220 M07/M08 A3024 RMK CI2 FG ALG CST SLP246
CYLT 161200Z 00000KT 15SM FEW220 M07/M08 A3024 RMK CI2 FST OBS FG ALG CST SLP244